createdAt,value
2023-05-01T00:01:40.354Z,14.73
2023-05-01T00:04:06.929Z,16.48
2023-05-01T00:06:33.983Z,10.88
2023-05-01T00:09:00.407Z,12.75
2023-05-01T00:11:26.844Z,14.90
2023-05-01T00:13:54.417Z,12.60
2023-05-01T00:16:20.996Z,12.50
2023-05-01T00:18:47.457Z,13.80
2023-05-01T00:21:13.893Z,16.20
2023-05-01T00:23:40.317Z,11.43
2023-05-01T00:26:07.498Z,14.63
2023-05-01T00:28:33.882Z,14.82
2023-05-01T00:31:00.297Z,18.40
2023-05-01T00:33:26.747Z,13.90
2023-05-01T00:35:53.109Z,14.38
2023-05-01T00:38:19.527Z,15.32
2023-05-01T00:40:46.998Z,15.13
2023-05-01T00:43:13.740Z,15.18
2023-05-01T00:45:43.271Z,15.63
2023-05-01T00:48:10.661Z,13.98
2023-05-01T00:50:37.664Z,16.25
2023-05-01T00:53:04.269Z,14.98
2023-05-01T00:55:33.008Z,14.80
2023-05-01T00:58:01.004Z,13.75
2023-05-01T01:00:27.477Z,14.98
2023-05-01T01:02:53.918Z,14.23
2023-05-01T01:05:24.385Z,14.32
2023-05-01T01:08:10.996Z,13.38
2023-05-01T01:10:49.523Z,14.82
2023-05-01T01:13:30.690Z,16.25
2023-05-01T01:16:15.849Z,15.88
2023-05-01T01:18:53.696Z,16.85
2023-05-01T01:21:27.567Z,15.75
2023-05-01T01:24:18.979Z,15.95
2023-05-01T01:27:10.225Z,15.90
2023-05-01T01:30:32.557Z,16.50
2023-05-01T01:33:32.892Z,19.08
2023-05-01T01:36:06.922Z,19.75
2023-05-01T01:38:42.715Z,15.68
2023-05-01T01:41:14.695Z,14.80
2023-05-01T01:43:47.618Z,17.70
2023-05-01T01:46:17.640Z,18.08
2023-05-01T01:48:48.888Z,15.27
2023-05-01T01:51:19.126Z,20.10
2023-05-01T01:53:50.434Z,17.73
2023-05-01T01:56:18.634Z,20.38
2023-05-01T01:58:46.096Z,19.25
2023-05-01T02:01:15.121Z,22.15
2023-05-01T02:03:44.076Z,20.75
2023-05-01T02:06:12.923Z,19.27
2023-05-01T02:08:42.437Z,20.42
2023-05-01T02:11:11.178Z,17.02
2023-05-01T02:13:39.033Z,20.00
2023-05-01T02:16:07.058Z,16.27
2023-05-01T02:18:34.554Z,14.65
2023-05-01T02:21:03.308Z,16.50
2023-05-01T02:23:31.767Z,17.30
2023-05-01T02:26:03.006Z,14.85
2023-05-01T02:28:30.164Z,15.30
2023-05-01T02:30:57.497Z,14.68
2023-05-01T02:33:23.949Z,15.63
2023-05-01T02:35:50.594Z,15.57
2023-05-01T02:38:17.368Z,15.65
2023-05-01T02:40:47.185Z,18.45
2023-05-01T02:43:18.302Z,17.83
2023-05-01T02:45:45.276Z,18.02
2023-05-01T02:48:15.846Z,21.85
2023-05-01T02:50:44.525Z,19.80
2023-05-01T02:53:13.043Z,20.25
2023-05-01T02:55:39.633Z,18.13
2023-05-01T02:58:06.247Z,17.63
2023-05-01T03:00:32.676Z,19.45
2023-05-01T03:02:59.134Z,21.85
2023-05-01T03:05:25.642Z,20.17
2023-05-01T03:07:53.246Z,18.75
2023-05-01T03:10:19.706Z,18.45
2023-05-01T03:12:46.047Z,19.08
2023-05-01T03:15:13.224Z,17.70
2023-05-01T03:17:39.644Z,19.52
2023-05-01T03:20:09.417Z,23.55
2023-05-01T03:22:36.062Z,19.35
2023-05-01T03:25:04.271Z,20.63
2023-05-01T03:27:30.982Z,21.35
2023-05-01T03:29:57.571Z,21.00
2023-05-01T03:32:24.314Z,20.27
2023-05-01T03:34:50.775Z,18.48
2023-05-01T03:37:17.182Z,18.70
2023-05-01T03:39:43.562Z,18.40
2023-05-01T03:42:09.985Z,18.35
2023-05-01T03:44:36.951Z,18.70
2023-05-01T03:47:03.449Z,19.20
2023-05-01T03:49:29.834Z,20.42
2023-05-01T03:51:56.630Z,17.30
2023-05-01T03:54:23.158Z,20.15
2023-05-01T03:56:49.473Z,19.45
2023-05-01T03:59:15.852Z,19.90
2023-05-01T04:01:42.345Z,23.50
2023-05-01T04:04:09.045Z,23.13
2023-05-01T04:06:36.169Z,22.75
2023-05-01T04:09:03.670Z,23.13
2023-05-01T04:11:30.022Z,22.73
2023-05-01T04:13:56.473Z,21.15
2023-05-01T04:16:22.938Z,22.98
2023-05-01T04:18:49.455Z,21.98
2023-05-01T04:21:17.542Z,21.50
2023-05-01T04:23:44.076Z,22.88
2023-05-01T04:26:10.678Z,23.40
2023-05-01T04:28:37.173Z,24.02
2023-05-01T04:31:03.962Z,21.90
2023-05-01T04:33:30.447Z,22.13
2023-05-01T04:35:56.906Z,24.23
2023-05-01T04:38:23.571Z,22.00
2023-05-01T04:40:49.881Z,22.50
2023-05-01T04:43:16.364Z,22.20
2023-05-01T04:45:42.882Z,22.13
2023-05-01T04:48:09.407Z,23.55
2023-05-01T04:50:35.804Z,21.65
2023-05-01T04:53:02.155Z,21.20
2023-05-01T04:55:30.902Z,20.65
2023-05-01T04:57:57.694Z,20.15
2023-05-01T05:00:24.211Z,20.25
2023-05-01T05:02:50.616Z,19.55
2023-05-01T05:05:16.996Z,20.40
2023-05-01T05:07:43.315Z,24.83
2023-05-01T05:10:09.932Z,24.10
2023-05-01T05:12:36.323Z,24.10
2023-05-01T05:15:03.219Z,23.92
2023-05-01T05:17:29.614Z,24.10
2023-05-01T05:19:56.180Z,21.35
2023-05-01T05:22:23.572Z,22.48
2023-05-01T05:24:55.633Z,18.88
2023-05-01T05:27:22.048Z,16.58
2023-05-01T05:29:48.366Z,14.10
2023-05-01T05:32:14.807Z,13.77
2023-05-01T05:34:41.221Z,13.93
2023-05-01T05:37:08.322Z,13.20
2023-05-01T05:39:35.080Z,13.40
2023-05-01T05:42:01.462Z,12.93
2023-05-01T05:44:27.852Z,13.18
2023-05-01T05:46:54.200Z,11.60
2023-05-01T05:49:20.538Z,10.80
2023-05-01T05:51:46.878Z,10.15
2023-05-01T05:54:13.202Z,9.82
2023-05-01T05:56:39.541Z,9.50
2023-05-01T05:59:06.487Z,9.73
2023-05-01T06:01:32.883Z,9.77
2023-05-01T06:03:59.258Z,10.63
2023-05-01T06:06:26.287Z,10.75
2023-05-01T06:08:52.825Z,9.70
2023-05-01T06:11:21.433Z,9.57
2023-05-01T06:13:47.823Z,11.23
2023-05-01T06:16:15.175Z,9.75
2023-05-01T06:18:42.867Z,9.63
2023-05-01T06:21:10.297Z,9.55
2023-05-01T06:23:37.105Z,10.40
2023-05-01T06:26:03.650Z,9.00
2023-05-01T06:28:30.030Z,8.52
2023-05-01T06:30:57.706Z,9.40
2023-05-01T06:33:24.095Z,10.35
2023-05-01T06:35:50.761Z,10.63
2023-05-01T06:38:17.241Z,10.38
2023-05-01T06:40:46.903Z,11.80
2023-05-01T06:43:13.354Z,11.23
2023-05-01T06:45:41.244Z,11.00
2023-05-01T06:48:07.721Z,10.43
2023-05-01T06:50:34.179Z,10.00
2023-05-01T06:53:02.570Z,9.38
2023-05-01T06:55:34.540Z,10.68
2023-05-01T06:58:04.868Z,11.13
2023-05-01T07:00:41.863Z,10.40
2023-05-01T07:03:10.785Z,11.68
2023-05-01T07:05:37.290Z,10.80
2023-05-01T07:08:03.813Z,10.02
2023-05-01T07:10:32.934Z,10.45
2023-05-01T07:12:59.877Z,9.75
2023-05-01T07:15:26.319Z,12.40
2023-05-01T07:17:52.755Z,9.48
2023-05-01T07:20:19.210Z,13.05
2023-05-01T07:22:45.846Z,8.60
2023-05-01T07:25:12.191Z,7.88
2023-05-01T07:27:38.593Z,8.25
2023-05-01T07:30:05.741Z,7.82
2023-05-01T07:32:33.000Z,8.48
2023-05-01T07:34:59.622Z,7.50
2023-05-01T07:37:26.994Z,8.32
2023-05-01T07:39:53.355Z,7.65
2023-05-01T07:42:19.770Z,9.52
2023-05-01T07:44:46.158Z,9.60
2023-05-01T07:47:12.527Z,7.78
2023-05-01T07:49:38.964Z,9.32
2023-05-01T07:52:07.608Z,9.00
2023-05-01T07:54:34.536Z,9.38
2023-05-01T07:57:02.019Z,9.48
2023-05-01T07:59:28.649Z,8.88
2023-05-01T08:01:55.054Z,8.50
2023-05-01T08:04:23.343Z,9.32
2023-05-01T08:06:50.976Z,9.23
2023-05-01T08:09:17.777Z,9.70
2023-05-01T08:11:44.173Z,9.88
2023-05-01T08:14:10.953Z,9.13
2023-05-01T08:16:37.544Z,10.05
2023-05-01T08:19:04.198Z,9.88
2023-05-01T08:21:31.249Z,8.40
2023-05-01T08:23:57.644Z,9.13
2023-05-01T08:26:24.065Z,8.35
2023-05-01T08:28:50.856Z,7.70
2023-05-01T08:31:17.437Z,8.38
2023-05-01T08:37:06.584Z,9.52
2023-05-01T08:39:32.994Z,10.43
2023-05-01T08:42:05.894Z,9.20
2023-05-01T08:48:58.385Z,6.78
2023-05-01T08:51:30.057Z,6.82
2023-05-01T08:54:15.385Z,6.53
2023-05-01T08:57:07.235Z,5.93
2023-05-01T09:00:38.009Z,6.27
2023-05-01T09:03:05.584Z,5.63
2023-05-01T09:05:33.361Z,6.55
2023-05-01T09:08:01.888Z,6.35
2023-05-01T09:10:41.288Z,8.77
2023-05-01T09:13:37.761Z,6.10
2023-05-01T09:22:35.450Z,5.57
2023-05-01T09:25:03.454Z,5.45
2023-05-01T09:27:35.045Z,6.47
2023-05-01T09:30:01.552Z,10.57
2023-05-01T09:32:28.412Z,9.32
2023-05-01T09:35:18.717Z,7.82
2023-05-01T09:38:46.016Z,11.43
2023-05-01T09:48:40.393Z,10.90
2023-05-01T09:51:59.932Z,9.23
2023-05-01T09:54:27.144Z,10.98
2023-05-01T09:57:38.484Z,10.45
2023-05-01T10:00:10.295Z,8.15
2023-05-01T10:02:37.529Z,7.97
2023-05-01T10:05:04.553Z,8.65
2023-05-01T10:07:31.084Z,10.30
2023-05-01T10:10:00.746Z,9.13
2023-05-01T10:15:38.792Z,7.65
2023-05-01T10:22:04.253Z,6.50
2023-05-01T10:24:32.408Z,7.18
2023-05-01T10:27:03.062Z,6.75
2023-05-01T10:29:30.009Z,5.90
2023-05-01T10:31:56.568Z,6.50
2023-05-01T10:34:26.375Z,6.72
2023-05-01T10:37:07.009Z,7.40
2023-05-01T10:39:35.496Z,7.35
2023-05-01T10:42:14.263Z,6.53
2023-05-01T10:44:42.372Z,7.07
2023-05-01T10:47:24.190Z,7.88
2023-05-01T10:50:07.895Z,6.72
2023-05-01T10:53:15.514Z,8.60
2023-05-01T10:55:46.709Z,12.05
2023-05-01T10:58:34.703Z,13.60
2023-05-01T11:01:45.198Z,8.40
2023-05-01T11:04:24.540Z,6.38
2023-05-01T11:07:08.526Z,5.45
2023-05-01T11:09:49.263Z,5.40
2023-05-01T11:12:36.651Z,6.47
2023-05-01T11:15:04.240Z,6.10
2023-05-01T11:17:40.106Z,5.07
2023-05-01T11:20:30.450Z,5.00
2023-05-01T11:22:57.453Z,5.55
2023-05-01T11:25:27.534Z,5.00
2023-05-01T11:27:58.705Z,4.15
2023-05-01T11:30:25.819Z,4.78
2023-05-01T11:32:52.624Z,4.15
2023-05-01T11:35:20.016Z,4.85
2023-05-01T11:37:47.475Z,5.57
2023-05-01T11:40:27.739Z,5.63
2023-05-01T11:43:08.735Z,5.90
2023-05-01T11:45:36.742Z,5.40
2023-05-01T11:48:04.814Z,5.88
2023-05-01T11:50:36.781Z,7.70
2023-05-01T11:53:11.635Z,6.32
2023-05-01T11:55:41.005Z,7.75
2023-05-01T11:58:07.573Z,7.78
2023-05-01T12:00:50.331Z,10.52
2023-05-01T12:03:16.894Z,15.27
2023-05-01T12:05:44.906Z,16.23
2023-05-01T12:08:21.024Z,13.32
2023-05-01T12:10:56.090Z,12.55
2023-05-01T12:13:23.921Z,8.23
2023-05-01T12:15:53.018Z,8.20
2023-05-01T12:18:21.377Z,9.02
2023-05-01T12:20:52.764Z,10.65
2023-05-01T12:23:29.571Z,11.25
2023-05-01T12:25:56.037Z,12.00
2023-05-01T12:28:22.605Z,10.27
2023-05-01T12:30:49.540Z,11.07
2023-05-01T12:33:20.567Z,12.45
2023-05-01T12:35:49.592Z,11.05
2023-05-01T12:38:23.380Z,8.77
2023-05-01T12:40:55.636Z,10.63
2023-05-01T12:43:31.309Z,9.65
2023-05-01T12:45:58.028Z,7.00
2023-05-01T12:48:25.088Z,9.40
2023-05-01T12:50:54.860Z,6.75
2023-05-01T12:53:26.957Z,7.63
2023-05-01T12:55:55.613Z,8.35
2023-05-01T12:58:22.721Z,7.53
2023-05-01T13:00:50.427Z,7.30
2023-05-01T13:03:23.425Z,6.20
2023-05-01T13:05:57.715Z,7.38
2023-05-01T13:08:37.538Z,6.35
2023-05-01T13:11:11.029Z,7.03
2023-05-01T13:13:39.843Z,7.30
2023-05-01T13:16:16.789Z,7.85
2023-05-01T13:18:59.302Z,13.98
2023-05-01T13:21:26.682Z,18.35
2023-05-01T13:23:55.816Z,16.23
2023-05-01T13:26:40.551Z,14.57
2023-05-01T13:31:33.545Z,9.57
2023-05-01T13:34:00.868Z,8.10
2023-05-01T13:36:32.198Z,10.52
2023-05-01T13:38:59.370Z,12.65
2023-05-01T13:41:27.263Z,11.50
2023-05-01T13:43:55.430Z,12.35
2023-05-01T13:46:23.854Z,11.23
2023-05-01T13:48:50.714Z,11.55
2023-05-01T13:51:23.080Z,10.20
2023-05-01T13:53:50.308Z,8.57
2023-05-01T13:56:16.832Z,9.43
2023-05-01T13:58:43.208Z,9.50
2023-05-01T14:01:15.719Z,8.10
2023-05-01T14:03:43.103Z,8.18
2023-05-01T14:06:20.168Z,7.32
2023-05-01T14:08:48.238Z,6.90
2023-05-01T14:11:15.169Z,7.63
2023-05-01T14:13:43.777Z,8.45
2023-05-01T14:16:20.966Z,8.60
2023-05-01T14:18:48.005Z,8.80
2023-05-01T14:21:15.988Z,8.75
2023-05-01T14:23:42.811Z,9.15
2023-05-01T14:26:11.364Z,8.77
2023-05-01T14:28:44.999Z,7.18
2023-05-01T14:31:30.086Z,6.53
2023-05-01T14:34:02.810Z,9.07
2023-05-01T14:36:31.543Z,6.53
2023-05-01T14:38:59.190Z,8.10
2023-05-01T14:41:25.850Z,6.50
2023-05-01T14:43:55.167Z,6.82
2023-05-01T14:46:32.738Z,6.90
2023-05-01T14:49:01.094Z,5.45
2023-05-01T14:51:29.194Z,5.30
2023-05-01T14:53:55.892Z,5.63
2023-05-01T14:56:23.034Z,9.55
2023-05-01T14:58:49.627Z,8.02
2023-05-01T15:01:16.956Z,9.35
2023-05-01T15:03:43.801Z,9.90
2023-05-01T15:06:10.557Z,9.52
2023-05-01T15:08:38.100Z,9.13
2023-05-01T15:11:04.615Z,9.20
2023-05-01T15:13:31.794Z,9.80
2023-05-01T15:15:58.598Z,8.90
2023-05-01T15:18:25.205Z,8.65
2023-05-01T15:20:51.637Z,9.10
2023-05-01T15:23:18.006Z,8.82
2023-05-01T15:25:44.442Z,52.55
2023-05-01T15:28:13.393Z,160.60
2023-05-01T15:30:44.266Z,832.20
2023-05-01T15:33:10.656Z,815.33
2023-05-01T15:35:37.191Z,826.22
2023-05-01T15:38:04.142Z,907.30
2023-05-01T15:40:30.561Z,848.50
2023-05-01T15:42:56.915Z,867.05
2023-05-01T15:45:23.423Z,912.03
2023-05-01T15:47:49.957Z,834.30
2023-05-01T15:50:16.416Z,721.97
2023-05-01T15:52:42.777Z,718.70
2023-05-01T15:55:09.312Z,832.65
2023-05-01T15:57:35.695Z,876.78
2023-05-01T16:05:17.069Z,773.65
2023-05-01T16:14:49.914Z,762.55
2023-05-01T16:21:04.841Z,827.47
2023-05-01T16:23:46.554Z,844.78
2023-05-01T16:26:13.439Z,852.88
2023-05-01T16:28:41.449Z,718.88
2023-05-01T16:31:16.035Z,667.85
2023-05-01T16:33:53.783Z,596.67
2023-05-01T16:36:24.549Z,696.53
2023-05-01T16:42:03.254Z,523.25
2023-05-01T16:44:30.050Z,697.83
2023-05-01T16:47:50.836Z,712.92
2023-05-01T16:50:23.764Z,583.70
2023-05-01T16:53:09.059Z,644.92
2023-05-01T16:55:36.009Z,650.75
2023-05-01T16:58:02.334Z,609.75
2023-05-01T17:00:29.306Z,609.47
2023-05-01T17:02:58.810Z,690.38
2023-05-01T17:05:25.630Z,706.47
2023-05-01T17:07:52.040Z,680.25
2023-05-01T17:10:18.430Z,635.17
2023-05-01T17:12:44.770Z,566.80
2023-05-01T17:15:11.434Z,603.03
2023-05-01T17:17:38.029Z,598.70
2023-05-01T17:20:25.062Z,504.27
2023-05-01T17:22:51.786Z,625.90
2023-05-01T17:25:18.295Z,554.58
2023-05-01T17:27:44.729Z,481.95
2023-05-01T17:30:11.418Z,474.50
2023-05-01T17:32:37.985Z,505.02
2023-05-01T17:35:05.640Z,508.20
2023-05-01T17:37:32.162Z,392.33
2023-05-01T17:39:58.815Z,585.50
2023-05-01T17:42:26.232Z,414.15
2023-05-01T17:44:52.774Z,318.77
2023-05-01T17:47:22.193Z,369.98
2023-05-01T17:49:52.246Z,358.17
2023-05-01T17:52:18.754Z,412.58
2023-05-01T17:54:45.193Z,397.40
2023-05-01T17:57:11.861Z,418.90
2023-05-01T17:59:38.233Z,344.45
2023-05-01T18:02:05.060Z,288.58
2023-05-01T18:04:31.612Z,270.60
2023-05-01T18:06:58.335Z,203.90
2023-05-01T18:09:24.770Z,255.85
2023-05-01T18:11:53.525Z,207.77
2023-05-01T18:14:20.098Z,297.60
2023-05-01T18:16:46.773Z,470.70
2023-05-01T18:19:13.485Z,495.85
2023-05-01T18:21:40.056Z,407.27
2023-05-01T18:24:06.935Z,338.63
2023-05-01T18:26:36.320Z,404.55
2023-05-01T18:29:06.437Z,469.98
2023-05-01T18:31:38.215Z,346.27
2023-05-01T18:34:06.579Z,322.35
2023-05-01T18:36:41.008Z,385.23
2023-05-01T18:41:34.236Z,179.60
2023-05-01T18:44:01.534Z,205.32
2023-05-01T18:46:28.759Z,189.75
2023-05-01T18:48:55.700Z,224.20
2023-05-01T18:51:24.358Z,294.55
2023-05-01T18:53:50.866Z,228.02
2023-05-01T18:56:17.552Z,261.00
2023-05-01T18:58:44.042Z,278.27
2023-05-01T19:01:16.464Z,394.23
2023-05-01T19:03:43.213Z,344.30
2023-05-01T19:06:10.572Z,287.48
2023-05-01T19:08:37.269Z,194.82
2023-05-01T19:11:06.284Z,172.65
2023-05-01T19:13:33.287Z,179.63
2023-05-01T19:16:02.605Z,209.32
2023-05-01T19:18:29.029Z,304.52
2023-05-01T19:20:55.534Z,301.52
2023-05-01T19:23:21.978Z,341.77
2023-05-01T19:25:49.050Z,315.05
2023-05-01T19:28:15.399Z,305.27
2023-05-01T19:30:42.163Z,279.85
2023-05-01T19:33:08.674Z,340.40
2023-05-01T19:35:35.508Z,383.92
2023-05-01T19:38:01.978Z,406.63
2023-05-01T19:40:28.690Z,407.80
2023-05-01T19:42:55.276Z,437.40
2023-05-01T19:45:21.788Z,390.40
2023-05-01T19:47:48.244Z,397.25
2023-05-01T19:50:20.794Z,370.63
2023-05-01T19:52:47.215Z,332.95
2023-05-01T19:55:14.836Z,366.67
2023-05-01T19:57:41.495Z,409.23
2023-05-01T20:00:08.825Z,427.05
2023-05-01T20:02:35.395Z,407.30
2023-05-01T20:05:02.073Z,432.58
2023-05-01T20:07:30.339Z,358.73
2023-05-01T20:09:56.998Z,335.10
2023-05-01T20:12:23.755Z,315.90
2023-05-01T20:14:50.237Z,336.33
2023-05-01T20:17:16.812Z,359.45
2023-05-01T20:19:43.728Z,315.90
2023-05-01T20:22:10.885Z,360.30
2023-05-01T20:24:37.243Z,315.38
2023-05-01T20:27:04.632Z,297.55
2023-05-01T20:29:31.253Z,330.27
2023-05-01T20:32:03.947Z,308.02
2023-05-01T20:34:31.921Z,268.85
2023-05-01T20:36:59.467Z,266.70
2023-05-01T20:39:26.182Z,281.00
2023-05-01T20:41:52.630Z,258.40
2023-05-01T20:44:19.180Z,280.63
2023-05-01T20:46:49.133Z,318.10
2023-05-01T20:49:17.318Z,346.05
2023-05-01T20:51:43.774Z,273.30
2023-05-01T20:54:10.487Z,299.73
2023-05-01T20:56:37.102Z,265.85
2023-05-01T20:59:04.307Z,256.80
2023-05-01T21:01:32.190Z,284.63
2023-05-01T21:03:59.910Z,282.58
2023-05-01T21:06:27.281Z,270.30
2023-05-01T21:08:53.946Z,271.70
2023-05-01T21:11:20.876Z,262.27
2023-05-01T21:13:47.503Z,245.00
2023-05-01T21:16:19.926Z,243.73
2023-05-01T21:18:49.642Z,217.77
2023-05-01T21:21:16.144Z,241.60
2023-05-01T21:23:47.505Z,206.85
2023-05-01T21:26:14.894Z,252.88
2023-05-01T21:28:46.568Z,256.92
2023-05-01T21:31:19.550Z,294.17
2023-05-01T21:33:46.031Z,273.38
2023-05-01T21:36:16.925Z,273.00
2023-05-01T21:38:43.524Z,262.10
2023-05-01T21:41:12.932Z,256.95
2023-05-01T21:43:39.453Z,245.23
2023-05-01T21:46:16.499Z,261.98
2023-05-01T21:48:43.365Z,218.43
2023-05-01T21:51:10.157Z,231.95
2023-05-01T21:53:40.738Z,241.98
2023-05-01T21:56:07.368Z,183.93
2023-05-01T21:58:33.861Z,215.77
2023-05-01T22:01:02.662Z,173.52
2023-05-01T22:03:29.199Z,152.32
2023-05-01T22:05:55.632Z,114.30
2023-05-01T22:08:22.875Z,117.30
2023-05-01T22:10:49.352Z,97.40
2023-05-01T22:13:16.146Z,96.80
2023-05-01T22:15:48.610Z,89.60
2023-05-01T22:18:19.370Z,90.57
2023-05-01T22:20:45.865Z,100.40
2023-05-01T22:23:12.278Z,94.22
2023-05-01T22:25:38.701Z,104.95
2023-05-01T22:28:05.975Z,95.32
2023-05-01T22:30:34.680Z,95.55
2023-05-01T22:33:01.123Z,91.18
2023-05-01T22:35:27.632Z,100.38
2023-05-01T22:37:54.018Z,95.00
2023-05-01T22:40:20.476Z,97.43
2023-05-01T22:42:47.335Z,92.95
2023-05-01T22:45:13.753Z,91.82
2023-05-01T22:47:40.146Z,87.22
2023-05-01T22:50:07.324Z,90.70
2023-05-01T22:52:33.934Z,91.03
2023-05-01T22:55:00.316Z,90.72
2023-05-01T22:57:26.836Z,92.93
2023-05-01T22:59:53.364Z,94.32
2023-05-01T23:02:19.981Z,95.00
2023-05-01T23:04:46.514Z,110.45
2023-05-01T23:07:13.848Z,112.25
2023-05-01T23:09:40.421Z,103.40
2023-05-01T23:12:07.107Z,96.05
2023-05-01T23:14:41.718Z,101.80
2023-05-01T23:17:08.092Z,93.60
2023-05-01T23:19:34.477Z,93.13
2023-05-01T23:22:09.578Z,96.55
2023-05-01T23:24:43.191Z,95.60
2023-05-01T23:27:10.342Z,93.80
2023-05-01T23:29:36.925Z,95.97
2023-05-01T23:32:03.932Z,102.97
2023-05-01T23:34:30.548Z,96.93
2023-05-01T23:36:56.937Z,97.38
2023-05-01T23:39:23.384Z,100.22
2023-05-01T23:41:50.522Z,99.28
2023-05-01T23:44:17.122Z,100.93
2023-05-01T23:46:43.674Z,96.15
2023-05-01T23:49:10.147Z,94.43
2023-05-01T23:51:39.630Z,91.72
2023-05-01T23:54:06.672Z,94.85
2023-05-01T23:56:33.204Z,91.40
2023-05-01T23:58:59.655Z,96.63
